Flight Track Log - Related Links

Times and Time Zones

All times are in EDT time to prevent confusion due to time zone crossing. See the CES5633 flight status page for this flight to view local times or setup timezone preferences in your user account.

Time Position Orientation Groundspeed Altitude Reporting Facility
EDT Latitude Longitude Course Direction KTS MPH feet Rate Location/Type
Sat 08:06:55 PM 31.0800 121.2170 325° Northwest 291 335 7,200  Level FlightAware ADS-B
Sat 08:07:20 PM 31.1080 121.1970 329° Northwest 289 333 8,300 2,400 Climbing FlightAware ADS-B
Sat 08:07:45 PM 31.1360 121.1770 329° Northwest 290 334 9,200 1,662 Climbing FlightAware ADS-B
Sat 08:08:25 PM 31.1850 121.1400 327° Northwest 303 349 10,100 640 Climbing FlightAware ADS-B
Sat 08:09:00 PM 31.2330 121.1180 339° North 307 353 10,000  Descending FlightAware ADS-B
Sat 08:09:55 PM 31.3150 121.1170 359° North 310 357 10,100 505 Climbing FlightAware ADS-B
Sat 08:10:35 PM 31.3770 121.1170 360° North 353 406 10,800 1,309 Climbing FlightAware ADS-B
Sat 08:11:45 PM 31.4930 121.0940 350° North 374 430 12,500 1,745 Climbing FlightAware ADS-B
Sat 08:12:25 PM 31.5600 121.0580 335° Northwest 387 445 14,000 2,025 Climbing FlightAware ADS-B
Sat 08:13:05 PM 31.6210 121.0260 336° Northwest 392 451 15,200 1,000 Climbing FlightAware ADS-B
Sat 08:13:55 PM 31.6930 120.9870 335° Northwest 392 451 15,500 207 Climbing FlightAware ADS-B
Sat 08:14:32 PM 31.7450 120.9580 335° Northwest 392 451 15,500  Level FlightAware ADS-B
Sat 08:15:21 PM 31.8130 120.9210 335° Northwest 392 451 15,500  Level FlightAware ADS-B
Sat 08:15:58 PM 31.8650 120.8920 335° Northwest 392 451 15,500  Level FlightAware ADS-B
Sat 08:16:34 PM 31.9150 120.8650 335° Northwest 392 451 15,500  Level FlightAware ADS-B
Sat 08:17:10 PM 31.9650 120.8370 335° Northwest 392 451 15,500 1,575 Level FlightAware ADS-B
Sat 08:19:00 PM 32.0661 120.6616 304° West  Level Estimated
Sat 08:20:00 PM 32.1211 120.5658 304° West  Level Estimated
Sat 08:21:00 PM 32.1761 120.4698 304° West  Level Estimated
Sat 08:22:00 PM 32.2310 120.3737 304° West  Level Estimated
Sat 08:23:00 PM 32.2858 120.2775 304° West  Level Estimated
Sat 08:24:00 PM 32.3406 120.1812 304° West  Level Estimated
Sat 08:24:15 PM 32.2360 119.9210 304° West 437 503 27,600  Level FlightAware ADS-B
Sat 08:25:00 PM 32.2430 119.8210 275° West 442 509 27,600  Level FlightAware ADS-B
Sat 08:25:35 PM 32.2370 119.7280 266° West 444 511 27,600  Level FlightAware ADS-B
Sat 08:26:10 PM 32.2220 119.6430 258° West 445 512 27,600  Level FlightAware ADS-B
Sat 08:27:02 PM 32.2050 119.5370 259° West 445 512 27,600 71 Level FlightAware ADS-B
Sat 08:27:35 PM 32.1860 119.4450 256° West 445 512 27,700 67 Climbing FlightAware ADS-B
Sat 08:28:31 PM 32.1630 119.3160 258° West 442 509 27,700 -60 Level FlightAware ADS-B
Sat 08:29:15 PM 32.1430 119.2090 258° West 437 503 27,600 -67 Descending FlightAware ADS-B
Sat 08:30:00 PM 32.1230 119.1010 258° West 432 497 27,600  Level FlightAware ADS-B
Sat 08:31:06 PM 32.0980 118.9660 258° West 431 496 27,600  Level FlightAware ADS-B
Sat 08:31:42 PM 32.0860 118.8960 259° West 431 496 27,600  Level FlightAware ADS-B
Sat 08:32:31 PM 32.0680 118.8000 258° West 431 496 27,600  Level FlightAware ADS-B
Sat 08:33:19 PM 32.0520 118.7060 259° West 431 496 27,600  Level FlightAware ADS-B
Sat 08:33:56 PM 32.0380 118.6340 257° West 431 496 27,600  Level FlightAware ADS-B
Sat 08:36:00 PM 32.1541 118.4378 305° West  Level Estimated
Sat 08:37:00 PM 32.2101 118.3427 305° West  Level Estimated
Sat 08:38:00 PM 32.2661 118.2475 305° West  Level Estimated
Sat 08:39:00 PM 32.3220 118.1521 305° West  Level Estimated
Sat 08:40:00 PM 32.3778 118.0566 305° West  Level Estimated
Sat 08:41:00 PM 32.4336 117.9611 305° West  Level Estimated
Sat 08:42:00 PM 32.4893 117.8654 305° West  Level Estimated
Sat 08:43:00 PM 32.5449 117.7695 305° West  Level Estimated
Sat 08:44:00 PM 32.6005 117.6736 305° West  Level Estimated
Sat 08:45:00 PM 32.6559 117.5775 304° West  Level Estimated
Sat 08:46:00 PM 32.7113 117.4814 304° West  Level Estimated
Sat 08:47:00 PM 32.7667 117.3851 304° West  Level Estimated
Sat 08:48:00 PM 32.8219 117.2886 304° West  Level Estimated
Sat 08:49:00 PM 32.8771 117.1921 304° West  Level Estimated
Sat 08:50:00 PM 32.9322 117.0954 304° West  Level Estimated
Sat 08:51:00 PM 32.9872 116.9987 304° West  Level Estimated
Sat 08:52:00 PM 33.0422 116.9018 304° West  Level Estimated
Sat 08:53:00 PM 33.0971 116.8047 304° West  Level Estimated
Sat 08:54:00 PM 33.1519 116.7076 304° West  Level Estimated
Sat 08:55:00 PM 33.2066 116.6103 304° West  Level Estimated
Sat 08:56:00 PM 33.2612 116.5130 304° West  Level Estimated
Sat 08:57:00 PM 33.3158 116.4155 304° West  Level Estimated
Sat 08:58:00 PM 33.3703 116.3178 304° West  Level Estimated
Sat 08:59:00 PM 33.4248 116.2201 304° West  Level Estimated
Sat 09:00:00 PM 33.4791 116.1222 304° West  Level Estimated
Sat 09:01:00 PM 33.5334 116.0242 304° West  Level Estimated
Sat 09:02:00 PM 33.5876 115.9261 304° West  Level Estimated
Sat 09:03:00 PM 33.6417 115.8278 304° West  Level Estimated
Sat 09:04:00 PM 33.6957 115.7295 303° West  Level Estimated
Sat 09:05:00 PM 33.7497 115.6310 303° West  Level Estimated
Sat 09:06:00 PM 33.8036 115.5324 303° West  Level Estimated
Sat 09:07:00 PM 33.8574 115.4336 303° West  Level Estimated
Sat 09:08:00 PM 33.9111 115.3348 303° West  Level Estimated
Sat 09:09:00 PM 33.9647 115.2358 303° West  Level Estimated
Sat 09:10:00 PM 34.0183 115.1367 303° West  Level Estimated
Sat 09:11:00 PM 34.0718 115.0374 303° West  Level Estimated
Sat 09:12:00 PM 34.1252 114.9381 303° West  Level Estimated
Sat 09:13:00 PM 34.1786 114.8386 303° West  Level Estimated
Sat 09:14:00 PM 34.2318 114.7390 303° West  Level Estimated
Sat 09:15:00 PM 34.2850 114.6392 303° West  Level Estimated
Sat 09:16:00 PM 34.3381 114.5394 303° West  Level Estimated
Sat 09:17:00 PM 34.3911 114.4394 303° West  Level Estimated
Sat 09:18:00 PM 34.4440 114.3393 303° West  Level Estimated
Sat 09:19:00 PM 34.4968 114.2390 303° West  Level Estimated
Sat 09:20:00 PM 34.5496 114.1386 303° West  Level Estimated
Sat 09:21:00 PM 34.6023 114.0381 303° West  Level Estimated
Sat 09:22:00 PM 34.6549 113.9375 302° West  Level Estimated
Sat 09:23:00 PM 34.7074 113.8368 302° West  Level Estimated
Sat 09:24:00 PM 34.7598 113.7359 302° West  Level Estimated
Sat 09:25:00 PM 34.8121 113.6349 302° West  Level Estimated
Sat 09:26:00 PM 34.8644 113.5337 302° West  Level Estimated
Sat 09:27:00 PM 34.9197 113.4264 302° West  Level Estimated
Sat 09:28:00 PM 34.9749 113.3188 302° West  Level Estimated
Sat 09:29:00 PM 35.0301 113.2112 302° West  Level Estimated
Sat 09:30:00 PM 35.0851 113.1033 302° West  Level Estimated
Sat 09:31:00 PM 35.1401 112.9954 302° West  Level Estimated
Sat 09:32:00 PM 35.1949 112.8873 302° West  Level Estimated
Sat 09:33:00 PM 35.2497 112.7790 302° West  Level Estimated
Sat 09:34:00 PM 35.3043 112.6706 302° West  Level Estimated
Sat 09:35:00 PM 35.3589 112.5621 302° West  Level Estimated
Sat 09:36:00 PM 35.4133 112.4534 302° West  Level Estimated
Sat 09:37:00 PM 35.4677 112.3445 302° West  Level Estimated
Sat 09:38:00 PM 35.5220 112.2355 301° West  Level Estimated
Sat 09:39:00 PM 35.5761 112.1264 301° West  Level Estimated
Sat 09:40:00 PM 35.6302 112.0171 301° West  Level Estimated
Sat 09:41:00 PM 35.6842 111.9077 301° West  Level Estimated
Sat 09:42:00 PM 35.7381 111.7981 301° West  Level Estimated
Sat 09:43:00 PM 35.7918 111.6884 301° West  Level Estimated
Sat 09:44:00 PM 35.8455 111.5785 301° West  Level Estimated
Sat 09:45:00 PM 35.8991 111.4685 301° West  Level Estimated
Sat 09:46:00 PM 35.9525 111.3583 301° West  Level Estimated
Sat 09:47:00 PM 36.0059 111.2480 301° West  Level Estimated
Sat 09:48:00 PM 36.0592 111.1375 301° West  Level Estimated
Sat 09:49:00 PM 36.1124 111.0269 301° West  Level Estimated
Sat 09:50:00 PM 36.1654 110.9161 301° West  Level Estimated
Sat 09:51:00 PM 36.2184 110.8052 301° West  Level Estimated
Sat 09:52:00 PM 36.2712 110.6941 301° West  Level Estimated
Sat 09:53:00 PM 36.3240 110.5829 301° West  Level Estimated
Sat 09:54:00 PM 36.3767 110.4715 300° West  Level Estimated
Sat 09:55:00 PM 36.4292 110.3600 300° West  Level Estimated
Sat 09:56:00 PM 36.4817 110.2483 300° West  Level Estimated
Sat 09:57:00 PM 36.5340 110.1365 300° West  Level Estimated
Sat 09:58:00 PM 36.5862 110.0245 300° West  Level Estimated
Sat 09:59:00 PM 36.6384 109.9124 300° West  Level Estimated
Sat 10:00:00 PM 36.6904 109.8001 300° West  Level Estimated
Sat 10:01:00 PM 36.7423 109.6877 300° West  Level Estimated
Sat 10:02:00 PM 36.7941 109.5751 300° West  Level Estimated
Sat 10:03:00 PM 36.8459 109.4624 300° West  Level Estimated
Sat 10:04:00 PM 36.8975 109.3495 300° West  Level Estimated
Sat 10:05:00 PM 36.9490 109.2364 300° West  Level Estimated
Sat 10:06:00 PM 37.0004 109.1233 300° West  Level Estimated
Sat 10:07:00 PM 37.0516 109.0099 300° West  Level Estimated
Sat 10:08:00 PM 37.1028 108.8964 300° West  Level Estimated
Sat 10:09:00 PM 37.1539 108.7828 299° West  Level Estimated
Sat 10:10:00 PM 37.2048 108.6689 299° West  Level Estimated
Sat 10:11:00 PM 37.2557 108.5550 299° West  Level Estimated
Sat 10:12:00 PM 37.3064 108.4409 299° West  Level Estimated
Sat 10:13:00 PM 37.3571 108.3266 299° West  Level Estimated
Sat 10:14:00 PM 37.4076 108.2122 299° West  Level Estimated
Sat 10:15:00 PM 37.4580 108.0976 299° West  Level Estimated
Sat 10:16:00 PM 37.5083 107.9829 299° West  Level Estimated
Sat 10:17:00 PM 37.5585 107.8680 299° West  Level Estimated
Sat 10:18:00 PM 37.6086 107.7529 299° West  Level Estimated
Sat 10:19:00 PM 37.6585 107.6377 299° West  Level Estimated
Sat 10:20:00 PM 37.7084 107.5224 299° West  Level Estimated
Sat 10:21:00 PM 37.7581 107.4069 299° West  Level Estimated
Sat 10:22:00 PM 37.8077 107.2912 299° West  Level Estimated
Sat 10:23:00 PM 37.8573 107.1754 298° West  Level Estimated
Sat 10:24:00 PM 37.9067 107.0594 298° West  Level Estimated
Sat 10:25:00 PM 37.9559 106.9433 298° West  Level Estimated
Sat 10:26:00 PM 38.0051 106.8270 298° West  Level Estimated
Sat 10:27:00 PM 38.0542 106.7106 298° West  Level Estimated
Sat 10:28:00 PM 38.1031 106.5940 298° West  Level Estimated
Sat 10:29:00 PM 38.1519 106.4772 298° West  Level Estimated
Sat 10:30:00 PM 38.2006 106.3603 298° West  Level Estimated
Sat 10:31:00 PM 38.2492 106.2433 298° West  Level Estimated
Sat 10:32:00 PM 38.2977 106.1261 298° West  Level Estimated
Sat 10:33:00 PM 38.3461 106.0087 298° West  Level Estimated
Sat 10:34:00 PM 38.3943 105.8911 298° West  Level Estimated
Sat 10:35:00 PM 38.4425 105.7735 298° West  Level Estimated
Sat 10:36:00 PM 38.4905 105.6556 298° West  Level Estimated
Sat 10:37:00 PM 38.5384 105.5376 297° West  Level Estimated
Sat 10:38:00 PM 38.5861 105.4194 297° West  Level Estimated
Sat 10:39:00 PM 38.6338 105.3011 297° West  Level Estimated
Sat 10:40:00 PM 38.6813 105.1826 297° West  Level Estimated
Sat 10:41:00 PM 38.7287 105.0640 297° West  Level Estimated
Sat 10:42:00 PM 38.7760 104.9452 297° West  Level Estimated
Sat 10:43:00 PM 38.8232 104.8263 297° West  Level Estimated
Sat 10:44:00 PM 38.8702 104.7072 297° West  Level Estimated
Sat 10:45:00 PM 38.9172 104.5879 297° West  Level Estimated
Sat 10:46:00 PM 38.9640 104.4685 297° West  Level Estimated
Sat 10:47:00 PM 39.0107 104.3489 297° West  Level Estimated
Sat 10:48:00 PM 39.0572 104.2292 297° West  Level Estimated
Sat 10:49:00 PM 39.1037 104.1093 297° West  Level Estimated
Sat 10:50:00 PM 39.1500 103.9892 296° West  Level Estimated
Sat 10:51:00 PM 39.1962 103.8690 296° West  Level Estimated
Sat 10:52:00 PM 39.2423 103.7486 296° West  Level Estimated
Sat 10:53:00 PM 39.2882 103.6281 296° West  Level Estimated
Sat 10:54:00 PM 39.3340 103.5074 296° West  Level Estimated
Sat 10:55:00 PM 39.3797 103.3866 296° West  Level Estimated
Sat 10:56:00 PM 39.4253 103.2656 296° West  Level Estimated
Sat 10:57:00 PM 39.4708 103.1444 296° West  Level Estimated
Sat 10:58:00 PM 39.5161 103.0231 296° West  Level Estimated
Sat 10:59:00 PM 39.5613 102.9016 296° West  Level Estimated
Sat 11:00:00 PM 39.6064 102.7800 296° West  Level Estimated
Sat 11:01:00 PM 39.6513 102.6582 296° West  Level Estimated
Sat 11:02:00 PM 39.6961 102.5363 296° West  Level Estimated
Sat 11:03:00 PM 39.7408 102.4142 295° West  Level Estimated
Sat 11:04:00 PM 39.7854 102.2919 295° West  Level Estimated
Sat 11:05:00 PM 39.8298 102.1695 295° West  Level Estimated
Sat 11:06:00 PM 39.8741 102.0469 295° West  Level Estimated
Sat 11:07:00 PM 39.9183 101.9242 295° West  Level Estimated
Sat 11:08:00 PM 39.9623 101.8013 295° West  Level Estimated
Sat 11:09:00 PM 40.0062 101.6782 295° West  Level Estimated
Sat 11:10:00 PM 40.0500 101.5550 295° West  Level Estimated
Sat 11:11:00 PM 40.0937 101.4316 295° West  Level Estimated
Sat 11:12:00 PM 40.1372 101.3081 295° West  Level Estimated
Sat 11:13:00 PM 40.1806 101.1844 295° West  Level Estimated
Sat 11:14:00 PM 40.2239 101.0606 295° West  Level Estimated
Sat 11:15:00 PM 40.2670 100.9366 295° West  Level Estimated
Sat 11:16:00 PM 40.3100 100.8124 294° West  Level Estimated
Sat 11:17:00 PM 40.3529 100.6881 294° West  Level Estimated
Sat 11:18:00 PM 40.3956 100.5636 294° West  Level Estimated
Sat 11:19:00 PM 40.4382 100.4390 294° West  Level Estimated
Sat 11:20:00 PM 40.4806 100.3142 294° West  Level Estimated
Sat 11:21:00 PM 40.5230 100.1892 294° West  Level Estimated
Sat 11:22:00 PM 40.5652 100.0641 294° West  Level Estimated
Sat 11:23:00 PM 40.6072 99.9388 294° West  Level Estimated
Sat 11:24:00 PM 40.6491 99.8134 294° West  Level Estimated
Sat 11:25:00 PM 40.6909 99.6878 294° West  Level Estimated
Sat 11:26:00 PM 40.7326 99.5621 294° West  Level Estimated
Sat 11:27:00 PM 40.7741 99.4362 294° West  Level Estimated
Sat 11:28:00 PM 40.8155 99.3102 293° West  Level Estimated
Sat 11:29:00 PM 40.8567 99.1839 293° West  Level Estimated
Sat 11:30:00 PM 40.8978 99.0576 293° West  Level Estimated
Sat 11:31:00 PM 40.9388 98.9311 293° West  Level Estimated
Sat 11:32:00 PM 40.9796 98.8044 293° West  Level Estimated
Sat 11:33:00 PM 41.0203 98.6775 293° West  Level Estimated
Sat 11:34:00 PM 41.0608 98.5505 293° West  Level Estimated
Sat 11:35:00 PM 41.1012 98.4234 293° West  Level Estimated
Sat 11:36:00 PM 41.1415 98.2961 293° West  Level Estimated
Sat 11:37:00 PM 41.1816 98.1686 293° West  Level Estimated
Sat 11:38:00 PM 41.2216 98.0410 293° West  Level Estimated
Sat 11:39:00 PM 41.2615 97.9132 293° West  Level Estimated
Sat 11:40:00 PM 41.3012 97.7853 292° West  Level Estimated
Sat 11:41:00 PM 41.3407 97.6572 292° West  Level Estimated
Sat 11:42:00 PM 41.3801 97.5290 292° West  Level Estimated
Sat 11:43:00 PM 41.4194 97.4006 292° West  Level Estimated
Sat 11:44:00 PM 41.4586 97.2720 292° West  Level Estimated
Sat 11:45:00 PM 41.4976 97.1433 292° West  Level Estimated
Sat 11:46:00 PM 41.5364 97.0144 292° West  Level Estimated
Sat 11:47:00 PM 41.5751 96.8854 292° West  Level Estimated
Sat 11:48:00 PM 41.6137 96.7562 292° West  Level Estimated
Sat 11:49:00 PM 41.6521 96.6269 292° West  Level Estimated
Sat 11:50:00 PM 41.6903 96.4974 292° West  Level Estimated
Sat 11:51:00 PM 41.7285 96.3678 292° West  Level Estimated
Sat 11:52:00 PM 41.7664 96.2380 291° West  Level Estimated
Sat 11:53:00 PM 41.8043 96.1081 291° West  Level Estimated
Sat 11:54:00 PM 41.8419 95.9780 291° West  Level Estimated
Sat 11:55:00 PM 41.8795 95.8477 291° West  Level Estimated
Sat 11:56:00 PM 41.9169 95.7173 291° West  Level Estimated
Sat 11:57:00 PM 41.9541 95.5868 291° West  Level Estimated
Sat 11:58:00 PM 41.9912 95.4561 291° West  Level Estimated
Sat 11:59:00 PM 42.0282 95.3252 291° West  Level Estimated
Sun 12:00:00 AM 42.0650 95.1942 291° West  Level Estimated
Sun 12:01:00 AM 42.1016 95.0631 291° West  Level Estimated
Sun 12:02:00 AM 42.1381 94.9317 291° West  Level Estimated
Sun 12:03:00 AM 42.1745 94.8003 290° West  Level Estimated
Sun 12:04:00 AM 42.2107 94.6687 290° West  Level Estimated
Sun 12:05:00 AM 42.2467 94.5369 290° West  Level Estimated
Sun 12:06:00 AM 42.2826 94.4050 290° West  Level Estimated
Sun 12:07:00 AM 42.3184 94.2729 290° West  Level Estimated
Sun 12:08:00 AM 42.3539 94.1407 290° West  Level Estimated
Sun 12:09:00 AM 42.3894 94.0084 290° West  Level Estimated
Sun 12:10:00 AM 42.4247 93.8759 290° West  Level Estimated
Sun 12:11:00 AM 42.4598 93.7432 290° West  Level Estimated
Sun 12:12:00 AM 42.4948 93.6104 290° West  Level Estimated
Sun 12:13:00 AM 42.5296 93.4774 290° West  Level Estimated
Sun 12:14:00 AM 42.5643 93.3443 290° West  Level Estimated
Sun 12:15:00 AM 42.5988 93.2111 289° West  Level Estimated
Sun 12:16:00 AM 42.6332 93.0777 289° West  Level Estimated
Sun 12:17:00 AM 42.6674 92.9441 289° West  Level Estimated
Sun 12:18:00 AM 42.7015 92.8104 289° West  Level Estimated
Sun 12:19:00 AM 42.7354 92.6766 289° West  Level Estimated
Sun 12:20:00 AM 42.7691 92.5426 289° West  Level Estimated
Sun 12:21:00 AM 42.8027 92.4084 289° West  Level Estimated
Sun 12:22:00 AM 42.8361 92.2742 289° West  Level Estimated
Sun 12:23:00 AM 42.8694 92.1397 289° West  Level Estimated
Sun 12:24:00 AM 42.9025 92.0052 289° West  Level Estimated
Sun 12:25:00 AM 42.9355 91.8705 289° West  Level Estimated
Sun 12:26:00 AM 42.9683 91.7356 288° West  Level Estimated
Sun 12:27:00 AM 43.0009 91.6006 288° West  Level Estimated
Sun 12:28:00 AM 43.0334 91.4655 288° West  Level Estimated
Sun 12:29:00 AM 43.0657 91.3302 288° West  Level Estimated
Sun 12:30:00 AM 43.0979 91.1947 288° West  Level Estimated
Sun 12:31:00 AM 43.1299 91.0592 288° West  Level Estimated
Sun 12:32:00 AM 43.1617 90.9235 288° West  Level Estimated
Sun 12:33:00 AM 43.1934 90.7876 288° West  Level Estimated
Sun 12:34:00 AM 43.2249 90.6516 288° West  Level Estimated
Sun 12:35:00 AM 43.2563 90.5155 288° West  Level Estimated
Sun 12:36:00 AM 43.2875 90.3792 288° West  Level Estimated
Sun 12:37:00 AM 43.3185 90.2428 287° West  Level Estimated
Sun 12:38:00 AM 43.3494 90.1062 287° West  Level Estimated
Sun 12:39:00 AM 43.3801 89.9695 287° West  Level Estimated
Sun 12:40:00 AM 43.4107 89.8327 287° West  Level Estimated
Sun 12:41:00 AM 43.4411 89.6957 287° West  Level Estimated
Sun 12:42:00 AM 43.4713 89.5586 287° West  Level Estimated
Sun 12:43:00 AM 43.5014 89.4214 287° West  Level Estimated
Sun 12:44:00 AM 43.5312 89.2840 287° West  Level Estimated
Sun 12:45:00 AM 43.5610 89.1465 287° West  Level Estimated
Sun 12:46:00 AM 43.5905 89.0088 287° West  Level Estimated
Sun 12:47:00 AM 43.6199 88.8710 286° West  Level Estimated
Sun 12:48:00 AM 43.6492 88.7331 286° West  Level Estimated
Sun 12:49:00 AM 43.6783 88.5951 286° West  Level Estimated
Sun 12:50:00 AM 43.7072 88.4569 286° West  Level Estimated
Sun 12:51:00 AM 43.7359 88.3186 286° West  Level Estimated
Sun 12:52:00 AM 43.7645 88.1801 286° West  Level Estimated
Sun 12:53:00 AM 43.7929 88.0415 286° West  Level Estimated
Sun 12:54:00 AM 43.8211 87.9028 286° West  Level Estimated
Sun 12:55:00 AM 43.8492 87.7639 286° West  Level Estimated
Sun 12:56:00 AM 43.8768 87.6264 286° West  Level Estimated
Sun 12:57:00 AM 43.9042 87.4888 286° West  Level Estimated
Sun 12:58:00 AM 43.9071 87.4742 285° West  Level Estimated
Sun 12:59:00 AM 43.9071 87.4742 144° Southeast  Level Estimated
Sun 01:00:00 AM 43.9071 87.4742 144° Southeast  Level Estimated
Sun 01:01:00 AM 43.9071 87.4742 144° Southeast  Level Estimated
Sun 01:02:00 AM 43.9071 87.4742 144° Southeast  Level Estimated
Sun 01:03:00 AM 43.9071 87.4742 144° Southeast  Level Estimated
Sun 01:04:00 AM 43.9071 87.4742 144° Southeast  Level Estimated

Login

Don't have an account? Register now (free) for customized features, flight alerts, and more!